Time;durP1;ratioP1;P1;durP2;ratioP2;P2;SDS_P1;SDS_P2;PMS_P1;PMS_P2;Temp;Humidity;BMP_temperature;BMP_pressure;BME280_temperature;BME280_humidity;BME280_pressure;Samples;Min_cycle;Max_cycle;Signal;HPM_P1;HPM_P2
2022/04/21 00:02:20;;;;;;;5.57;4.97;;;;;;;;;;4994803;28;20205;-61
2022/04/21 00:04:47;;;;;;;7.23;5.17;;;;;;;;;;5007684;28;20288;-63
2022/04/21 00:07:15;;;;;;;6.00;4.87;;;;;;;;;;5000524;28;20206;-62
2022/04/21 00:09:42;;;;;;;6.13;4.70;;;;;;;;;;5003100;28;20268;-62
2022/04/21 00:12:10;;;;;;;7.83;5.80;;;;;;;;;;5012068;28;20766;-63
2022/04/21 00:14:38;;;;;;;5.50;5.00;;;;;;;;;;5000702;28;20244;-63
2022/04/21 00:17:08;;;;;;;5.60;4.80;;;;;;;;;;5001901;28;20204;-62
2022/04/21 00:19:36;;;;;;;7.07;5.17;;;;;;;;;;4999742;28;20593;-62
2022/04/21 00:24:50;;;;;;;6.53;5.23;;;;;;;;;;5020611;28;20223;-63
2022/04/21 00:27:18;;;;;;;8.97;5.00;;;;;;;;;;4999404;28;20208;-62
2022/04/21 00:29:45;;;;;;;5.67;4.93;;;;;;;;;;5012710;28;20205;-62
2022/04/21 00:32:13;;;;;;;6.20;5.60;;;;;;;;;;5003422;28;20217;-62
2022/04/21 00:34:40;;;;;;;10.80;5.20;;;;;;;;;;5021081;28;20602;-62
2022/04/21 00:37:08;;;;;;;6.13;5.27;;;;;;;;;;4999371;28;20213;-63
2022/04/21 00:39:36;;;;;;;5.70;4.93;;;;;;;;;;4999184;28;20198;-62
2022/04/21 00:42:03;;;;;;;8.23;5.17;;;;;;;;;;5011284;28;20686;-63
2022/04/21 00:44:31;;;;;;;6.83;5.43;;;;;;;;;;5003394;28;20233;-62
2022/04/21 00:47:00;;;;;;;6.63;5.93;;;;;;;;;;5013254;28;20218;-61
2022/04/21 00:49:29;;;;;;;8.73;5.83;;;;;;;;;;5019764;28;20232;-62
2022/04/21 00:51:59;;;;;;;7.47;5.57;;;;;;;;;;5014508;28;20231;-61
2022/04/21 00:54:30;;;;;;;6.83;6.00;;;;;;;;;;4996537;28;20233;-62
2022/04/21 00:56:58;;;;;;;6.90;5.83;;;;;;;;;;5009784;28;20206;-62
2022/04/21 00:59:25;;;;;;;8.50;5.60;;;;;;;;;;5000799;28;20205;-61
2022/04/21 01:04:39;;;;;;;8.07;5.30;;;;;;;;;;5009965;28;20238;-63
2022/04/21 01:07:10;;;;;;;5.67;5.17;;;;;;;;;;5014252;28;20213;-63
2022/04/21 01:09:37;;;;;;;6.50;5.67;;;;;;;;;;4997883;28;20238;-63
2022/04/21 01:12:09;;;;;;;9.70;6.73;;;;;;;;;;5007795;28;20256;-62
2022/04/21 01:14:39;;;;;;;8.70;5.70;;;;;;;;;;5000646;28;20582;-62
2022/04/21 01:17:07;;;;;;;8.03;5.77;;;;;;;;;;5010799;28;20202;-62
2022/04/21 01:19:35;;;;;;;8.23;5.93;;;;;;;;;;4998675;28;20203;-62
2022/04/21 01:22:03;;;;;;;10.93;6.10;;;;;;;;;;5014700;28;20236;-62
2022/04/21 01:24:30;;;;;;;8.50;5.60;;;;;;;;;;5011821;28;20690;-62
2022/04/21 01:26:58;;;;;;;7.60;6.10;;;;;;;;;;4995495;28;20710;-63
2022/04/21 01:29:27;;;;;;;6.73;6.00;;;;;;;;;;4999386;28;20481;-62
2022/04/21 01:31:55;;;;;;;7.03;5.90;;;;;;;;;;4998858;28;20228;-64
2022/04/21 01:34:23;;;;;;;9.40;5.70;;;;;;;;;;4997315;28;20234;-61
2022/04/21 01:42:22;;;;;;;7.57;5.57;;;;;;;;;;5012825;28;20202;-64
2022/04/21 01:44:50;;;;;;;6.37;5.20;;;;;;;;;;5004848;28;20237;-63
2022/04/21 01:47:17;;;;;;;7.43;5.60;;;;;;;;;;5019555;28;20621;-63
2022/04/21 01:49:45;;;;;;;7.37;5.80;;;;;;;;;;5004656;28;20303;-63
2022/04/21 01:52:12;;;;;;;13.33;8.63;;;;;;;;;;4995214;28;20217;-63
2022/04/21 01:54:40;;;;;;;8.80;7.07;;;;;;;;;;5002812;28;20694;-63
2022/04/21 01:57:07;;;;;;;9.37;7.40;;;;;;;;;;5001747;28;20220;-62
2022/04/21 01:59:35;;;;;;;11.40;7.40;;;;;;;;;;5003951;28;20209;-63
2022/04/21 02:02:02;;;;;;;9.00;6.80;;;;;;;;;;5019245;28;20247;-62
2022/04/21 02:04:30;;;;;;;11.03;6.70;;;;;;;;;;5018050;28;20233;-63
2022/04/21 02:06:57;;;;;;;7.53;6.47;;;;;;;;;;5012562;28;20205;-63
2022/04/21 02:09:24;;;;;;;7.90;5.97;;;;;;;;;;5015435;28;20372;-63
2022/04/21 02:11:52;;;;;;;11.13;6.70;;;;;;;;;;5016510;28;20600;-60
2022/04/21 02:14:19;;;;;;;10.00;6.53;;;;;;;;;;5017252;28;20240;-61
2022/04/21 02:16:47;;;;;;;8.87;6.60;;;;;;;;;;5018937;28;20213;-62
2022/04/21 02:19:14;;;;;;;8.43;6.80;;;;;;;;;;4996425;28;20219;-64
2022/04/21 02:21:42;;;;;;;7.73;6.60;;;;;;;;;;5019208;28;20208;-63
2022/04/21 02:24:09;;;;;;;7.37;6.60;;;;;;;;;;5014067;28;20215;-63
2022/04/21 02:26:37;;;;;;;10.00;6.97;;;;;;;;;;5012675;28;20272;-62
2022/04/21 02:29:04;;;;;;;9.07;7.30;;;;;;;;;;5017401;28;20702;-62
2022/04/21 02:31:31;;;;;;;9.10;7.17;;;;;;;;;;5014513;28;20214;-63
2022/04/21 02:33:59;;;;;;;8.50;7.17;;;;;;;;;;5013303;28;20267;-63
2022/04/21 02:36:26;;;;;;;8.23;6.77;;;;;;;;;;4998914;28;20205;-62
2022/04/21 02:38:53;;;;;;;9.20;6.73;;;;;;;;;;4999821;28;20206;-62
2022/04/21 02:41:21;;;;;;;7.57;6.57;;;;;;;;;;5017812;28;20586;-63
2022/04/21 02:43:48;;;;;;;9.97;7.37;;;;;;;;;;4999578;28;20713;-63
2022/04/21 02:46:16;;;;;;;9.03;6.80;;;;;;;;;;5017125;28;20622;-63
2022/04/21 02:48:43;;;;;;;8.87;7.47;;;;;;;;;;5009202;28;20213;-63
2022/04/21 02:51:11;;;;;;;10.30;7.60;;;;;;;;;;4996082;28;20212;-62
2022/04/21 02:59:10;;;;;;;11.37;8.47;;;;;;;;;;5014581;28;20343;-63
2022/04/21 03:01:37;;;;;;;9.77;7.33;;;;;;;;;;5016378;28;20683;-63
2022/04/21 03:04:05;;;;;;;9.20;6.50;;;;;;;;;;4990025;28;20286;-63
2022/04/21 03:06:32;;;;;;;7.43;6.60;;;;;;;;;;5017100;28;20205;-63
2022/04/21 03:09:00;;;;;;;9.30;6.40;;;;;;;;;;5002661;28;20207;-62
2022/04/21 03:11:27;;;;;;;9.43;6.60;;;;;;;;;;5006916;28;20545;-63
2022/04/21 03:13:55;;;;;;;7.80;6.80;;;;;;;;;;5001398;28;20230;-61
2022/04/21 03:16:22;;;;;;;7.93;6.03;;;;;;;;;;4999837;28;20222;-63
2022/04/21 03:18:50;;;;;;;7.27;6.50;;;;;;;;;;5006253;28;20205;-63
2022/04/21 03:24:21;;;;;;;8.63;6.63;;;;;;;;;;5015962;28;20217;-63
2022/04/21 03:26:53;;;;;;;7.70;6.43;;;;;;;;;;5013823;28;20592;-61
2022/04/21 03:29:21;;;;;;;9.27;7.13;;;;;;;;;;5019773;28;20213;-62
2022/04/21 03:31:49;;;;;;;7.00;6.17;;;;;;;;;;5013110;28;20209;-63
2022/04/21 03:34:17;;;;;;;10.10;7.13;;;;;;;;;;5021920;28;20244;-63
2022/04/21 03:36:48;;;;;;;8.17;7.03;;;;;;;;;;5018878;28;20274;-63
2022/04/21 03:39:20;;;;;;;11.33;7.40;;;;;;;;;;5016905;28;20233;-63
2022/04/21 03:41:53;;;;;;;8.30;7.10;;;;;;;;;;5017298;28;20946;-63
2022/04/21 03:44:21;;;;;;;7.97;6.63;;;;;;;;;;5021544;28;20227;-62
2022/04/21 03:46:49;;;;;;;9.60;7.47;;;;;;;;;;4995387;28;20266;-62
2022/04/21 03:49:16;;;;;;;8.23;6.77;;;;;;;;;;5010959;28;20225;-62
2022/04/21 03:51:43;;;;;;;7.83;7.03;;;;;;;;;;5012607;28;20697;-62
2022/04/21 03:54:11;;;;;;;8.50;7.00;;;;;;;;;;4999398;28;20302;-63
2022/04/21 03:56:39;;;;;;;8.50;6.70;;;;;;;;;;5005712;28;20204;-62
2022/04/21 03:59:06;;;;;;;12.03;6.87;;;;;;;;;;5002267;28;20221;-63
2022/04/21 04:01:34;;;;;;;7.97;6.93;;;;;;;;;;4998187;28;20203;-63
2022/04/21 04:04:01;;;;;;;7.97;7.17;;;;;;;;;;5013866;28;20212;-62
2022/04/21 04:12:03;;;;;;;9.80;7.53;;;;;;;;;;5012967;28;20213;-62
2022/04/21 04:14:30;;;;;;;8.00;6.57;;;;;;;;;;5008459;28;20230;-63
2022/04/21 04:16:57;;;;;;;9.30;7.50;;;;;;;;;;5001752;28;20256;-62
2022/04/21 04:19:25;;;;;;;8.23;7.43;;;;;;;;;;5016456;28;20208;-63
2022/04/21 04:21:52;;;;;;;7.53;6.80;;;;;;;;;;5002427;28;20211;-62
2022/04/21 04:24:20;;;;;;;9.23;7.20;;;;;;;;;;5002426;28;20231;-63
2022/04/21 04:26:48;;;;;;;7.53;6.77;;;;;;;;;;4995117;28;20874;-61
2022/04/21 04:29:22;;;;;;;8.10;7.27;;;;;;;;;;5011866;28;20447;-62
2022/04/21 04:31:50;;;;;;;9.23;7.30;;;;;;;;;;4998298;28;20220;-61
2022/04/21 04:34:18;;;;;;;9.40;7.50;;;;;;;;;;5007689;28;20248;-60
2022/04/21 04:36:46;;;;;;;9.00;7.67;;;;;;;;;;4996409;28;20213;-63
2022/04/21 04:39:14;;;;;;;9.07;6.40;;;;;;;;;;5012294;28;20201;-63
2022/04/21 04:44:27;;;;;;;8.50;6.80;;;;;;;;;;5016448;28;20682;-63
2022/04/21 04:46:55;;;;;;;9.37;7.33;;;;;;;;;;4995341;28;20215;-63
2022/04/21 04:49:23;;;;;;;12.77;9.27;;;;;;;;;;4995032;28;20724;-62
2022/04/21 04:51:50;;;;;;;9.87;7.97;;;;;;;;;;4995542;28;20209;-62
2022/04/21 04:54:18;;;;;;;9.10;7.40;;;;;;;;;;4997851;28;20249;-62
2022/04/21 04:56:48;;;;;;;9.07;7.80;;;;;;;;;;5010019;28;20210;-60
2022/04/21 04:59:16;;;;;;;8.43;7.27;;;;;;;;;;5018180;28;20217;-61
2022/04/21 05:01:45;;;;;;;8.53;7.57;;;;;;;;;;5010125;28;20212;-61
2022/04/21 05:04:17;;;;;;;8.60;7.70;;;;;;;;;;4993703;28;20272;-62
2022/04/21 05:06:52;;;;;;;9.40;8.00;;;;;;;;;;5004367;28;20205;-64
2022/04/21 05:09:21;;;;;;;9.23;8.17;;;;;;;;;;5024764;28;20298;-63
2022/04/21 05:11:53;;;;;;;9.73;7.47;;;;;;;;;;5017001;28;20259;-63
2022/04/21 05:14:21;;;;;;;8.73;7.70;;;;;;;;;;5023863;28;20227;-63
2022/04/21 05:16:49;;;;;;;9.33;7.80;;;;;;;;;;5007451;28;20204;-63
2022/04/21 05:19:19;;;;;;;8.80;7.63;;;;;;;;;;5001103;28;20236;-63
2022/04/21 05:21:47;;;;;;;10.73;8.60;;;;;;;;;;5025004;28;20215;-63
2022/04/21 05:24:15;;;;;;;9.53;8.30;;;;;;;;;;5012425;28;20240;-63
2022/04/21 05:26:43;;;;;;;9.70;8.57;;;;;;;;;;5000665;28;20227;-62
2022/04/21 05:31:58;;;;;;;8.77;7.80;;;;;;;;;;5024435;28;20204;-61
2022/04/21 05:34:26;;;;;;;8.93;8.03;;;;;;;;;;5009839;28;20240;-62
2022/04/21 05:36:54;;;;;;;9.90;8.90;;;;;;;;;;5017321;28;20197;-63
2022/04/21 05:39:22;;;;;;;9.23;8.30;;;;;;;;;;5019954;28;20206;-63
2022/04/21 05:41:51;;;;;;;9.17;8.27;;;;;;;;;;5006091;28;20211;-63
2022/04/21 05:44:19;;;;;;;9.20;8.17;;;;;;;;;;5023928;28;20743;-61
2022/04/21 05:46:47;;;;;;;10.03;8.97;;;;;;;;;;5005457;28;20210;-63
2022/04/21 05:49:15;;;;;;;10.33;8.53;;;;;;;;;;5021399;28;20206;-61
2022/04/21 05:51:42;;;;;;;9.73;8.63;;;;;;;;;;5023715;28;20211;-63
2022/04/21 05:54:10;;;;;;;10.70;8.80;;;;;;;;;;5027094;28;20203;-62
2022/04/21 05:56:37;;;;;;;10.13;9.07;;;;;;;;;;5010736;28;21199;-63
2022/04/21 05:59:04;;;;;;;11.30;9.13;;;;;;;;;;5003534;28;20584;-63
2022/04/21 06:01:32;;;;;;;10.83;9.67;;;;;;;;;;5009117;28;20257;-63
2022/04/21 06:03:59;;;;;;;9.73;8.73;;;;;;;;;;5007879;28;20203;-63
2022/04/21 06:06:27;;;;;;;11.03;9.10;;;;;;;;;;5008437;28;20217;-63
2022/04/21 06:08:54;;;;;;;11.40;9.17;;;;;;;;;;5010104;28;20207;-61
2022/04/21 06:11:23;;;;;;;10.70;9.30;;;;;;;;;;5009253;28;20567;-63
2022/04/21 06:13:51;;;;;;;14.27;8.90;;;;;;;;;;5004717;28;20203;-62
2022/04/21 06:16:18;;;;;;;10.67;9.57;;;;;;;;;;5023805;28;20237;-63
2022/04/21 06:18:46;;;;;;;10.53;9.53;;;;;;;;;;5023396;28;20207;-63
2022/04/21 06:21:13;;;;;;;10.53;8.90;;;;;;;;;;5028194;28;20685;-63
2022/04/21 06:23:41;;;;;;;10.50;9.20;;;;;;;;;;5003721;28;20214;-62
2022/04/21 06:26:09;;;;;;;10.40;9.30;;;;;;;;;;5004146;28;20232;-62
2022/04/21 06:28:37;;;;;;;9.73;8.50;;;;;;;;;;5012680;28;20211;-61
2022/04/21 06:31:05;;;;;;;9.77;8.77;;;;;;;;;;5028519;28;20728;-61
2022/04/21 06:33:32;;;;;;;10.03;8.23;;;;;;;;;;5007148;28;20268;-62
2022/04/21 06:36:02;;;;;;;11.80;8.53;;;;;;;;;;5016646;28;20235;-61
2022/04/21 06:38:30;;;;;;;9.73;8.30;;;;;;;;;;5002343;28;20207;-63
2022/04/21 06:40:57;;;;;;;10.27;8.50;;;;;;;;;;5020079;28;20262;-63
2022/04/21 06:49:13;;;;;;;9.27;8.37;;;;;;;;;;5008267;28;20760;-63
2022/04/21 06:51:41;;;;;;;12.23;8.63;;;;;;;;;;5014794;28;20269;-62
2022/04/21 06:54:09;;;;;;;10.23;8.97;;;;;;;;;;5014208;28;20199;-63
2022/04/21 06:56:37;;;;;;;9.27;8.37;;;;;;;;;;5005900;28;20710;-62
2022/04/21 06:59:05;;;;;;;11.37;8.70;;;;;;;;;;5004462;28;20207;-62
2022/04/21 07:01:35;;;;;;;10.20;9.10;;;;;;;;;;5019659;28;20206;-63
2022/04/21 07:04:02;;;;;;;9.60;8.60;;;;;;;;;;4985344;28;20686;-63
2022/04/21 07:06:29;;;;;;;9.73;8.73;;;;;;;;;;4988778;28;20739;-62
2022/04/21 07:08:57;;;;;;;9.50;8.50;;;;;;;;;;4995167;28;20204;-63
2022/04/21 07:11:24;;;;;;;9.90;8.87;;;;;;;;;;5006684;28;20240;-62
2022/04/21 07:13:52;;;;;;;9.53;8.53;;;;;;;;;;5010723;28;20200;-63
2022/04/21 07:16:19;;;;;;;13.13;8.30;;;;;;;;;;5013748;28;20242;-62
2022/04/21 07:18:46;;;;;;;10.40;8.60;;;;;;;;;;5002969;28;20234;-63
2022/04/21 07:21:15;;;;;;;11.07;9.27;;;;;;;;;;5002965;28;20196;-63
2022/04/21 07:23:43;;;;;;;10.03;7.90;;;;;;;;;;5001796;28;20214;-62
2022/04/21 07:26:10;;;;;;;8.90;7.90;;;;;;;;;;5001674;28;20290;-63
2022/04/21 07:28:38;;;;;;;9.47;8.57;;;;;;;;;;5011776;28;20207;-62
2022/04/21 07:31:06;;;;;;;11.00;8.73;;;;;;;;;;5004833;28;20226;-62
2022/04/21 07:33:34;;;;;;;9.73;8.10;;;;;;;;;;5010088;28;20199;-63
2022/04/21 07:36:01;;;;;;;10.17;8.60;;;;;;;;;;5001977;28;20239;-63
2022/04/21 07:38:31;;;;;;;11.27;8.80;;;;;;;;;;5011101;28;20577;-61
2022/04/21 07:40:58;;;;;;;9.70;8.70;;;;;;;;;;5017910;28;20665;-63
2022/04/21 07:43:26;;;;;;;10.53;8.47;;;;;;;;;;5002771;28;20659;-61
2022/04/21 07:45:54;;;;;;;10.10;8.80;;;;;;;;;;5017318;28;20238;-63
2022/04/21 07:48:22;;;;;;;9.43;8.53;;;;;;;;;;5013868;28;20669;-61
2022/04/21 07:50:50;;;;;;;10.27;8.73;;;;;;;;;;5004387;28;20257;-63
2022/04/21 07:53:21;;;;;;;10.30;8.20;;;;;;;;;;5021880;28;20689;-63
2022/04/21 07:55:50;;;;;;;10.93;8.90;;;;;;;;;;5015581;28;20227;-63
2022/04/21 07:58:18;;;;;;;9.73;8.20;;;;;;;;;;5013393;28;20677;-64
2022/04/21 08:00:46;;;;;;;9.07;7.77;;;;;;;;;;4998914;28;20217;-62
2022/04/21 08:03:18;;;;;;;9.60;8.60;;;;;;;;;;5015586;28;20207;-63
2022/04/21 08:05:46;;;;;;;9.87;7.97;;;;;;;;;;4999912;28;20905;-63
2022/04/21 08:08:13;;;;;;;9.30;8.10;;;;;;;;;;5012948;28;20203;-63
2022/04/21 08:10:41;;;;;;;9.50;8.50;;;;;;;;;;5000401;28;20229;-62
2022/04/21 08:13:09;;;;;;;10.33;8.13;;;;;;;;;;5007974;28;20199;-62
2022/04/21 08:15:36;;;;;;;11.53;8.10;;;;;;;;;;5014600;28;20231;-62
2022/04/21 08:18:05;;;;;;;8.57;7.60;;;;;;;;;;5015264;28;20215;-62
2022/04/21 08:20:37;;;;;;;9.10;8.13;;;;;;;;;;5002268;28;20253;-62
2022/04/21 08:23:04;;;;;;;8.73;7.83;;;;;;;;;;5007305;28;21743;-62
2022/04/21 08:34:28;;;;;;;8.83;7.93;;;;;;;;;;5011577;28;20288;-63
2022/04/21 08:36:57;;;;;;;8.57;7.67;;;;;;;;;;5004874;28;20989;-63
2022/04/21 08:39:24;;;;;;;8.90;8.00;;;;;;;;;;5014080;28;20199;-62
2022/04/21 08:41:54;;;;;;;9.73;8.10;;;;;;;;;;5003033;28;20308;-62
2022/04/21 08:44:22;;;;;;;8.10;7.20;;;;;;;;;;5015355;28;20219;-62
2022/04/21 08:46:50;;;;;;;8.90;7.83;;;;;;;;;;4996271;28;20214;-63
2022/04/21 08:49:21;;;;;;;9.40;8.27;;;;;;;;;;5004319;28;20212;-62
2022/04/21 08:51:49;;;;;;;7.90;7.10;;;;;;;;;;5019640;28;20198;-62
2022/04/21 08:54:17;;;;;;;8.40;7.60;;;;;;;;;;5007503;28;20226;-62
2022/04/21 08:56:44;;;;;;;8.83;7.40;;;;;;;;;;5004019;28;20630;-63
2022/04/21 08:59:12;;;;;;;9.33;7.43;;;;;;;;;;4999911;28;20265;-62
2022/04/21 09:01:39;;;;;;;9.87;8.10;;;;;;;;;;5003274;28;20198;-63
2022/04/21 09:04:06;;;;;;;7.60;6.67;;;;;;;;;;5022720;28;20881;-62
2022/04/21 09:06:38;;;;;;;7.53;6.80;;;;;;;;;;5005108;28;20544;-63
2022/04/21 09:09:22;;;;;;;7.73;6.93;;;;;;;;;;5006225;28;20732;-63
2022/04/21 09:11:53;;;;;;;8.57;6.97;;;;;;;;;;5023567;28;20267;-62
2022/04/21 09:14:21;;;;;;;7.47;6.77;;;;;;;;;;5014222;28;20230;-61
2022/04/21 09:16:49;;;;;;;7.40;6.53;;;;;;;;;;5010563;28;20219;-62
2022/04/21 09:19:17;;;;;;;7.83;6.80;;;;;;;;;;5003821;28;20241;-62
2022/04/21 09:21:44;;;;;;;9.67;6.93;;;;;;;;;;5009702;28;20207;-61
2022/04/21 09:24:25;;;;;;;7.20;6.50;;;;;;;;;;5010073;28;20203;-63
2022/04/21 09:26:53;;;;;;;9.43;6.70;;;;;;;;;;4999551;28;20614;-62
2022/04/21 09:29:30;;;;;;;6.83;6.23;;;;;;;;;;5001667;28;20204;-61
2022/04/21 09:31:59;;;;;;;6.77;6.10;;;;;;;;;;5014998;28;20226;-61
2022/04/21 09:34:35;;;;;;;7.90;7.10;;;;;;;;;;5020513;28;20237;-63
2022/04/21 09:37:10;;;;;;;7.93;6.83;;;;;;;;;;5005364;28;20230;-63
2022/04/21 09:39:41;;;;;;;8.97;6.87;;;;;;;;;;5000824;28;20202;-63
2022/04/21 09:42:08;;;;;;;8.13;7.33;;;;;;;;;;5017614;28;20222;-64
2022/04/21 09:47:32;;;;;;;7.87;7.07;;;;;;;;;;5023466;28;20225;-62
2022/04/21 09:50:20;;;;;;;8.17;7.37;;;;;;;;;;5018585;28;20669;-62
2022/04/21 09:52:48;;;;;;;8.27;7.30;;;;;;;;;;5002193;28;20641;-62
2022/04/21 09:55:32;;;;;;;8.70;7.80;;;;;;;;;;4989018;28;20228;-65
2022/04/21 09:58:07;;;;;;;8.33;7.53;;;;;;;;;;5004187;28;20206;-63
2022/04/21 10:00:35;;;;;;;8.20;7.40;;;;;;;;;;5002451;28;20207;-65
2022/04/21 10:03:04;;;;;;;7.67;6.97;;;;;;;;;;5020091;28;20622;-61
2022/04/21 10:05:36;;;;;;;8.10;7.30;;;;;;;;;;5012249;28;20712;-63
2022/04/21 10:08:05;;;;;;;9.63;6.97;;;;;;;;;;5005971;28;20210;-61
2022/04/21 10:10:33;;;;;;;8.00;7.23;;;;;;;;;;5002184;28;20790;-61
2022/04/21 10:13:04;;;;;;;7.73;6.93;;;;;;;;;;5020621;28;20222;-62
2022/04/21 10:15:34;;;;;;;8.57;7.70;;;;;;;;;;5009429;28;20230;-62
2022/04/21 10:18:01;;;;;;;8.23;7.43;;;;;;;;;;4998756;28;20207;-62
2022/04/21 10:20:30;;;;;;;7.93;7.23;;;;;;;;;;5010797;28;20696;-62
2022/04/21 10:22:59;;;;;;;7.47;6.77;;;;;;;;;;5008757;28;20600;-62
2022/04/21 10:25:40;;;;;;;9.20;8.30;;;;;;;;;;5008575;28;21454;-62
2022/04/21 10:28:26;;;;;;;8.50;7.60;;;;;;;;;;4987290;28;20207;-61
2022/04/21 10:30:57;;;;;;;8.03;7.17;;;;;;;;;;4985023;28;20691;-61
2022/04/21 10:33:43;;;;;;;8.03;7.23;;;;;;;;;;4997990;28;20332;-62
2022/04/21 10:36:30;;;;;;;8.13;7.33;;;;;;;;;;5015721;28;20754;-61
2022/04/21 10:39:10;;;;;;;8.33;7.53;;;;;;;;;;5006594;28;20282;-63
2022/04/21 10:41:41;;;;;;;7.40;6.70;;;;;;;;;;5017629;28;20813;-63
2022/04/21 10:44:28;;;;;;;7.73;6.93;;;;;;;;;;5005881;28;20232;-63
2022/04/21 10:47:13;;;;;;;7.27;6.57;;;;;;;;;;5017433;28;20248;-63
2022/04/21 10:49:57;;;;;;;7.50;6.90;;;;;;;;;;4996837;28;20221;-62
2022/04/21 10:57:53;;;;;;;7.00;6.30;;;;;;;;;;5017409;28;20807;-63
2022/04/21 11:00:28;;;;;;;7.33;6.00;;;;;;;;;;4995244;28;20223;-62
2022/04/21 11:03:05;;;;;;;6.53;5.63;;;;;;;;;;4993568;28;20644;-62
2022/04/21 11:05:33;;;;;;;5.83;5.33;;;;;;;;;;5000942;28;20241;-63
2022/04/21 11:08:02;;;;;;;7.00;6.30;;;;;;;;;;4986517;28;20215;-62
2022/04/21 11:10:39;;;;;;;7.10;6.40;;;;;;;;;;4994135;28;20319;-62
2022/04/21 11:13:07;;;;;;;7.00;6.40;;;;;;;;;;5019076;28;20240;-63
2022/04/21 11:15:37;;;;;;;6.40;5.80;;;;;;;;;;5003184;28;20768;-63
2022/04/21 11:18:07;;;;;;;5.60;5.10;;;;;;;;;;5001365;28;20207;-63
2022/04/21 11:20:35;;;;;;;8.27;6.80;;;;;;;;;;5018766;28;20643;-63
2022/04/21 11:23:02;;;;;;;7.70;6.80;;;;;;;;;;5017965;28;20566;-63
2022/04/21 11:25:33;;;;;;;7.60;6.87;;;;;;;;;;5020437;28;20294;-63
2022/04/21 11:28:01;;;;;;;8.07;7.37;;;;;;;;;;5005656;28;20282;-63
2022/04/21 11:30:32;;;;;;;7.67;6.90;;;;;;;;;;5020215;28;20207;-63
2022/04/21 11:33:01;;;;;;;7.90;6.80;;;;;;;;;;5006486;28;20682;-63
2022/04/21 11:35:29;;;;;;;6.57;5.97;;;;;;;;;;4998692;28;20255;-63
2022/04/21 11:37:58;;;;;;;7.77;7.07;;;;;;;;;;5000394;28;20574;-65
2022/04/21 11:40:27;;;;;;;7.33;6.30;;;;;;;;;;4987319;28;20203;-63
2022/04/21 11:42:56;;;;;;;6.97;6.47;;;;;;;;;;5007538;28;20218;-62
2022/04/21 11:45:28;;;;;;;6.60;6.00;;;;;;;;;;4995694;28;20234;-63
2022/04/21 11:48:02;;;;;;;8.87;6.27;;;;;;;;;;5018305;28;20736;-63
2022/04/21 11:50:32;;;;;;;7.07;6.37;;;;;;;;;;5007422;28;20556;-62
2022/04/21 11:53:11;;;;;;;8.40;6.67;;;;;;;;;;5010233;28;20210;-63
2022/04/21 11:55:38;;;;;;;7.67;6.83;;;;;;;;;;5011263;28;20292;-62
2022/04/21 11:58:11;;;;;;;6.95;6.20;;;;;;;;;;5013285;28;20221;-63
2022/04/21 12:06:32;;;;;;;6.60;6.00;;;;;;;;;;5016143;28;20233;-63
2022/04/21 12:09:00;;;;;;;7.18;6.07;;;;;;;;;;5009966;28;20210;-63
2022/04/21 12:11:28;;;;;;;6.95;6.10;;;;;;;;;;5006282;28;20214;-63
2022/04/21 12:13:56;;;;;;;6.53;5.93;;;;;;;;;;4999015;28;20257;-64
2022/04/21 12:16:42;;;;;;;6.97;6.22;;;;;;;;;;5018895;28;20230;-64
2022/04/21 12:19:10;;;;;;;7.13;6.45;;;;;;;;;;5024312;28;20203;-63
2022/04/21 12:21:37;;;;;;;6.70;6.05;;;;;;;;;;5009686;28;20712;-63
2022/04/21 12:24:18;;;;;;;6.32;5.60;;;;;;;;;;5011961;28;20199;-63
2022/04/21 12:26:49;;;;;;;6.35;5.75;;;;;;;;;;5012659;28;20676;-64
2022/04/21 12:29:17;;;;;;;6.82;6.22;;;;;;;;;;5009630;28;20669;-63
2022/04/21 12:32:04;;;;;;;6.72;6.10;;;;;;;;;;5000448;28;20215;-64
2022/04/21 12:34:33;;;;;;;6.18;5.68;;;;;;;;;;5015887;28;20227;-64
2022/04/21 12:37:01;;;;;;;5.88;5.38;;;;;;;;;;4999233;28;20234;-64
2022/04/21 12:39:30;;;;;;;5.63;5.22;;;;;;;;;;4997828;28;20203;-64
2022/04/21 12:42:17;;;;;;;5.50;5.00;;;;;;;;;;5004826;28;20207;-62
2022/04/21 12:44:45;;;;;;;6.00;4.88;;;;;;;;;;5020931;28;20269;-61
2022/04/21 12:47:17;;;;;;;6.07;5.55;;;;;;;;;;4995066;28;20202;-62
2022/04/21 12:49:55;;;;;;;6.00;5.50;;;;;;;;;;4998363;28;20238;-62
2022/04/21 12:52:32;;;;;;;6.03;5.47;;;;;;;;;;4997656;28;20264;-64
2022/04/21 12:55:00;;;;;;;7.17;6.27;;;;;;;;;;5011884;28;20231;-64
2022/04/21 12:57:28;;;;;;;6.10;5.60;;;;;;;;;;5004123;28;20926;-64
2022/04/21 12:59:56;;;;;;;6.33;5.73;;;;;;;;;;5005845;28;20223;-63
2022/04/21 13:02:23;;;;;;;6.80;6.10;;;;;;;;;;5013929;28;20563;-63
2022/04/21 13:04:51;;;;;;;6.77;6.07;;;;;;;;;;4996939;28;20314;-63
2022/04/21 13:07:19;;;;;;;6.53;5.93;;;;;;;;;;5005482;28;20298;-63
2022/04/21 13:09:46;;;;;;;5.80;5.30;;;;;;;;;;4992422;28;20215;-63
2022/04/21 13:12:13;;;;;;;6.07;5.50;;;;;;;;;;4998443;28;20215;-63
2022/04/21 13:14:41;;;;;;;5.80;5.30;;;;;;;;;;4998324;28;20242;-63
2022/04/21 13:17:08;;;;;;;6.43;5.00;;;;;;;;;;5012215;28;20286;-64
2022/04/21 13:19:37;;;;;;;5.28;4.75;;;;;;;;;;5016184;28;20214;-63
2022/04/21 13:22:04;;;;;;;5.15;4.75;;;;;;;;;;5000553;28;20203;-63
2022/04/21 13:24:32;;;;;;;4.95;4.55;;;;;;;;;;5016101;28;20230;-64
2022/04/21 13:27:02;;;;;;;5.10;4.70;;;;;;;;;;5011666;28;20221;-63
2022/04/21 13:29:29;;;;;;;5.43;5.00;;;;;;;;;;5015480;28;20677;-63
2022/04/21 13:34:44;;;;;;;5.13;4.72;;;;;;;;;;5015154;28;20219;-63
2022/04/21 13:37:11;;;;;;;4.97;4.50;;;;;;;;;;4999871;28;20223;-63
2022/04/21 13:39:40;;;;;;;6.10;4.68;;;;;;;;;;4993513;28;20215;-63
2022/04/21 13:42:08;;;;;;;5.40;4.90;;;;;;;;;;5015271;28;20214;-63
2022/04/21 13:44:36;;;;;;;26.85;7.43;;;;;;;;;;5000452;28;20231;-64
2022/04/21 13:47:23;;;;;;;8.65;5.78;;;;;;;;;;5003003;28;20207;-63
2022/04/21 13:49:51;;;;;;;15.45;6.72;;;;;;;;;;4997713;28;20207;-63
2022/04/21 13:52:18;;;;;;;6.47;5.00;;;;;;;;;;5016053;28;20218;-63
2022/04/21 13:54:48;;;;;;;6.28;4.82;;;;;;;;;;5015007;28;20229;-63
2022/04/21 13:57:15;;;;;;;5.93;5.43;;;;;;;;;;5006487;28;20241;-64
2022/04/21 13:59:42;;;;;;;6.78;6.10;;;;;;;;;;5004870;28;20618;-63
2022/04/21 14:02:09;;;;;;;7.55;6.72;;;;;;;;;;5009481;28;20273;-63
2022/04/21 14:04:37;;;;;;;7.40;6.70;;;;;;;;;;5010259;28;20365;-63
2022/04/21 14:07:04;;;;;;;6.82;6.20;;;;;;;;;;5003591;28;20261;-63
2022/04/21 14:09:32;;;;;;;8.02;7.30;;;;;;;;;;5022329;28;20270;-64
2022/04/21 14:11:59;;;;;;;8.02;6.68;;;;;;;;;;5002617;28;20203;-63
2022/04/21 14:14:28;;;;;;;6.77;6.23;;;;;;;;;;5021795;28;20235;-63
2022/04/21 14:16:55;;;;;;;6.47;5.88;;;;;;;;;;5012026;28;20300;-63
2022/04/21 14:19:23;;;;;;;7.18;6.40;;;;;;;;;;5012774;28;20374;-63
2022/04/21 14:21:51;;;;;;;6.70;6.10;;;;;;;;;;5009244;28;20210;-62
2022/04/21 14:24:18;;;;;;;7.13;6.43;;;;;;;;;;5023319;28;20269;-62
2022/04/21 14:26:45;;;;;;;6.57;6.07;;;;;;;;;;5005351;28;20218;-63
2022/04/21 14:29:13;;;;;;;6.43;5.93;;;;;;;;;;5013185;28;20262;-62
2022/04/21 14:31:40;;;;;;;6.65;5.55;;;;;;;;;;5003442;28;20207;-62
2022/04/21 14:34:08;;;;;;;6.55;6.05;;;;;;;;;;5019278;28;20218;-62
2022/04/21 14:36:35;;;;;;;6.13;5.55;;;;;;;;;;5002817;28;20301;-63
2022/04/21 14:44:38;;;;;;;5.60;5.10;;;;;;;;;;5013274;28;20712;-62
2022/04/21 14:47:07;;;;;;;5.85;5.35;;;;;;;;;;5004390;28;20215;-62
2022/04/21 14:49:52;;;;;;;6.20;5.60;;;;;;;;;;5016006;28;20242;-62
2022/04/21 14:52:22;;;;;;;7.07;5.17;;;;;;;;;;5010201;28;20210;-62
2022/04/21 14:54:49;;;;;;;6.45;5.60;;;;;;;;;;5019526;28;20626;-62
2022/04/21 14:57:19;;;;;;;5.80;5.20;;;;;;;;;;5003155;28;20230;-62
2022/04/21 14:59:47;;;;;;;6.33;5.40;;;;;;;;;;4990037;28;20202;-63
2022/04/21 15:02:14;;;;;;;6.17;5.57;;;;;;;;;;4989976;28;20214;-62
2022/04/21 15:04:41;;;;;;;5.77;5.27;;;;;;;;;;4993832;28;20277;-62
2022/04/21 15:07:10;;;;;;;6.43;5.70;;;;;;;;;;5006553;28;20207;-62
2022/04/21 15:09:37;;;;;;;5.77;5.27;;;;;;;;;;4981528;28;20760;-62
2022/04/21 15:12:05;;;;;;;5.20;4.80;;;;;;;;;;5003841;28;20649;-62
2022/04/21 15:14:33;;;;;;;7.10;5.07;;;;;;;;;;4993473;28;20920;-61
2022/04/21 15:17:01;;;;;;;5.40;4.90;;;;;;;;;;4993516;28;20317;-63
2022/04/21 15:19:28;;;;;;;5.63;5.23;;;;;;;;;;5012225;28;20211;-62
2022/04/21 15:21:56;;;;;;;5.10;4.70;;;;;;;;;;5010721;28;20207;-62
2022/04/21 15:24:24;;;;;;;5.03;4.53;;;;;;;;;;5011146;28;20222;-63
2022/04/21 15:26:51;;;;;;;5.07;4.67;;;;;;;;;;4990683;28;20210;-63
2022/04/21 15:29:18;;;;;;;4.67;4.27;;;;;;;;;;4990307;28;20203;-63
2022/04/21 15:31:46;;;;;;;5.03;4.53;;;;;;;;;;4995258;28;20241;-62
2022/04/21 15:34:14;;;;;;;4.63;4.23;;;;;;;;;;4976579;28;20215;-65
2022/04/21 15:36:45;;;;;;;4.40;4.03;;;;;;;;;;4991223;28;20214;-64
2022/04/21 15:39:15;;;;;;;4.43;4.13;;;;;;;;;;4982594;28;20203;-63
2022/04/21 15:41:42;;;;;;;6.03;4.43;;;;;;;;;;4999497;28;20211;-63
2022/04/21 15:44:10;;;;;;;5.50;4.53;;;;;;;;;;4982646;28;20217;-64
2022/04/21 15:46:38;;;;;;;4.90;4.50;;;;;;;;;;5003664;28;20215;-63
2022/04/21 15:49:05;;;;;;;11.70;7.90;;;;;;;;;;5012690;28;20203;-63
2022/04/21 15:51:33;;;;;;;5.83;4.20;;;;;;;;;;5014592;28;20794;-63
2022/04/21 15:59:40;;;;;;;7.13;4.60;;;;;;;;;;5014974;28;20211;-64
2022/04/21 16:02:07;;;;;;;5.63;5.13;;;;;;;;;;5014875;28;20317;-62
2022/04/21 16:04:35;;;;;;;5.40;4.90;;;;;;;;;;4993657;28;20280;-62
2022/04/21 16:07:03;;;;;;;7.80;4.80;;;;;;;;;;5003264;28;21137;-64